createdAt,value
2017-04-12T01:16:05.477Z,0
2017-04-12T01:16:46.143Z,0
2017-04-12T01:17:27.813Z,0
2017-04-12T01:18:08.471Z,0
2017-04-12T01:18:49.105Z,0
2017-04-12T01:19:29.681Z,0
2017-04-12T01:20:10.267Z,0
2017-04-12T01:20:50.873Z,0
2017-04-12T01:21:31.528Z,0
2017-04-12T01:22:12.086Z,0
2017-04-12T01:22:52.808Z,0
2017-04-12T01:23:33.479Z,0
2017-04-12T01:24:14.138Z,0
2017-04-12T01:24:54.711Z,0
2017-04-12T01:25:35.403Z,0
2017-04-12T01:26:16.095Z,0
2017-04-12T01:26:56.735Z,0
2017-04-12T01:27:37.324Z,0
2017-04-12T01:28:18.016Z,0
2017-04-12T01:28:58.604Z,0
2017-04-12T01:29:39.252Z,0
2017-04-12T01:30:19.830Z,0
2017-04-12T01:31:00.525Z,0
2017-04-12T01:31:41.226Z,0
2017-04-12T01:32:21.970Z,0
2017-04-12T01:33:02.558Z,0
2017-04-12T01:33:43.220Z,0
2017-04-12T01:34:24.849Z,0
2017-04-12T01:35:05.501Z,0
2017-04-12T01:35:46.080Z,0
2017-04-12T01:36:26.772Z,0
2017-04-12T01:37:07.454Z,0
2017-04-12T01:37:48.126Z,0
2017-04-12T01:38:28.707Z,0
2017-04-12T01:39:09.407Z,0
2017-04-12T01:39:50.065Z,0
2017-04-12T01:40:30.718Z,0
2017-04-12T01:41:11.371Z,0
2017-04-12T01:41:52.039Z,0
2017-04-12T01:42:32.681Z,0
2017-04-12T01:43:14.360Z,0
2017-04-12T01:43:55.007Z,0
2017-04-12T01:44:35.678Z,0
2017-04-12T01:45:16.322Z,0
2017-04-12T01:45:56.974Z,0
2017-04-12T01:46:37.623Z,0
2017-04-12T01:47:18.272Z,0
2017-04-12T01:47:58.960Z,0
2017-04-12T01:48:39.576Z,0
2017-04-12T01:49:20.251Z,0
2017-04-12T01:50:00.897Z,0
2017-04-12T01:50:41.466Z,0
2017-04-12T01:51:22.085Z,0
2017-04-12T01:52:02.749Z,0
2017-04-12T01:52:43.316Z,0
2017-04-12T01:53:23.940Z,0
2017-04-12T01:54:05.618Z,0
2017-04-12T01:54:46.176Z,0
2017-04-12T01:55:26.817Z,0
2017-04-12T01:56:07.474Z,0
2017-04-12T01:56:48.051Z,0
2017-04-12T01:57:29.707Z,0
2017-04-12T01:58:10.359Z,0
2017-04-12T01:58:50.933Z,0
2017-04-12T01:59:31.557Z,0
2017-04-12T02:00:12.233Z,0
2017-04-12T02:00:52.887Z,0
2017-04-12T02:01:33.526Z,0
2017-04-12T02:02:14.193Z,0
2017-04-12T02:02:54.814Z,0
2017-04-12T02:03:37.432Z,0
2017-04-12T02:04:18.184Z,0
2017-04-12T02:04:58.853Z,0
2017-04-12T02:05:39.486Z,0
2017-04-12T02:06:20.140Z,0
2017-04-12T02:07:00.815Z,0
2017-04-12T02:07:41.456Z,0
2017-04-12T02:08:23.129Z,0
2017-04-12T02:09:03.782Z,0
2017-04-12T02:09:44.432Z,0
2017-04-12T02:10:25.000Z,0
2017-04-12T02:11:05.653Z,0
2017-04-12T02:11:46.297Z,0
2017-04-12T02:12:26.873Z,0
2017-04-12T02:13:07.487Z,0
2017-04-12T02:13:48.150Z,0
2017-04-12T02:14:28.766Z,0
2017-04-12T02:15:09.343Z,0
2017-04-12T02:15:49.997Z,0
2017-04-12T02:16:30.553Z,0
2017-04-12T02:17:11.154Z,0
2017-04-12T02:17:51.751Z,0
2017-04-12T02:18:32.408Z,0
2017-04-12T02:19:12.977Z,0
2017-04-12T02:19:53.627Z,0
2017-04-12T02:20:35.316Z,0
2017-04-12T02:21:15.892Z,0
2017-04-12T02:21:57.627Z,0
2017-04-12T02:22:38.276Z,0
2017-04-12T02:23:18.875Z,0
2017-04-12T02:23:59.500Z,0
2017-04-12T02:24:40.131Z,0
2017-04-12T02:25:20.775Z,0
2017-04-12T02:26:01.432Z,0
2017-04-12T02:26:42.095Z,0
2017-04-12T02:27:22.737Z,0
2017-04-12T02:28:03.415Z,0
2017-04-12T02:28:44.053Z,0
2017-04-12T02:29:24.620Z,0
2017-04-12T02:30:05.268Z,0
2017-04-12T02:30:46.034Z,0
2017-04-12T02:31:26.610Z,0
2017-04-12T02:32:07.246Z,0
2017-04-12T02:32:47.860Z,0
2017-04-12T02:33:28.434Z,0
2017-04-12T02:34:11.113Z,0
2017-04-12T02:34:51.764Z,0
2017-04-12T02:35:32.325Z,0
2017-04-12T02:36:12.924Z,0
2017-04-12T02:36:53.521Z,0
2017-04-12T02:37:34.170Z,0
2017-04-12T02:38:14.737Z,0
2017-04-12T02:38:55.388Z,0
2017-04-12T02:39:36.049Z,0
2017-04-12T02:40:16.675Z,0
2017-04-12T02:40:57.265Z,0
2017-04-12T02:41:37.877Z,0
2017-04-12T02:42:18.531Z,0
2017-04-12T02:42:59.193Z,0
2017-04-12T02:43:39.771Z,0
2017-04-12T02:44:20.455Z,0
2017-04-12T02:45:01.147Z,0
2017-04-12T02:45:41.795Z,0
2017-04-12T02:46:22.359Z,0
2017-04-12T02:47:04.008Z,0
2017-04-12T02:47:44.684Z,0
2017-04-12T02:48:25.332Z,0
2017-04-12T02:49:05.884Z,0
2017-04-12T02:49:46.553Z,0
2017-04-12T02:50:27.236Z,0
2017-04-12T02:51:07.819Z,0
2017-04-12T02:51:48.495Z,0
2017-04-12T02:52:29.158Z,0
2017-04-12T02:53:09.735Z,0
2017-04-12T02:53:50.347Z,0
2017-04-12T02:54:30.998Z,0
2017-04-12T02:55:11.659Z,0
2017-04-12T02:55:53.134Z,0
2017-04-12T02:56:33.784Z,0
2017-04-12T02:57:14.436Z,0
2017-04-12T02:57:56.118Z,0
2017-04-12T02:58:36.771Z,0
2017-04-12T02:59:17.350Z,0
2017-04-12T02:59:58.025Z,0
2017-04-12T03:00:38.614Z,0
2017-04-12T03:01:20.308Z,0
2017-04-12T03:02:00.868Z,0
2017-04-12T03:02:41.460Z,0
2017-04-12T03:03:22.088Z,0
2017-04-12T03:04:02.719Z,0
2017-04-12T03:04:43.357Z,0
2017-04-12T03:05:24.033Z,0
2017-04-12T03:06:04.675Z,0
2017-04-12T03:06:45.325Z,0
2017-04-12T03:07:25.987Z,0
2017-04-12T03:08:06.655Z,0
2017-04-12T03:08:47.277Z,0
2017-04-12T03:09:27.857Z,0
2017-04-12T03:10:08.500Z,0
2017-04-12T03:10:49.172Z,0
2017-04-12T03:11:29.729Z,0
2017-04-12T03:12:10.331Z,0
2017-04-12T03:12:50.993Z,0
2017-04-12T03:13:31.638Z,0
2017-04-12T03:14:12.308Z,0
2017-04-12T03:14:52.957Z,0
2017-04-12T03:15:33.601Z,0
2017-04-12T03:16:14.281Z,0
2017-04-12T03:16:54.911Z,0
2017-04-12T03:17:36.614Z,0
2017-04-12T03:18:17.249Z,0
2017-04-12T03:18:57.910Z,0
2017-04-12T03:19:38.479Z,0
2017-04-12T03:20:19.170Z,0
2017-04-12T03:20:59.876Z,0
2017-04-12T03:21:40.711Z,0
2017-04-12T03:22:21.279Z,0
2017-04-12T03:23:01.885Z,0
2017-04-12T03:23:42.605Z,0
2017-04-12T03:24:23.226Z,0
2017-04-12T03:25:03.904Z,0
2017-04-12T03:25:44.530Z,0
2017-04-12T03:26:25.181Z,0
2017-04-12T03:27:05.868Z,0
2017-04-12T03:27:47.526Z,0
2017-04-12T03:28:28.169Z,0
2017-04-12T03:29:08.813Z,0
2017-04-12T03:29:49.482Z,0
2017-04-12T03:30:30.138Z,0
2017-04-12T03:31:10.795Z,0
2017-04-12T03:31:51.439Z,0
2017-04-12T03:32:32.089Z,0
2017-04-12T03:33:12.738Z,0
2017-04-12T03:33:53.409Z,0
2017-04-12T03:34:34.042Z,0
2017-04-12T03:35:14.702Z,0
2017-04-12T03:35:55.348Z,0
2017-04-12T03:36:36.000Z,0
2017-04-12T03:37:16.645Z,0
2017-04-12T03:37:58.330Z,0
2017-04-12T03:38:38.982Z,0
2017-04-12T03:39:19.663Z,0
2017-04-12T03:40:00.295Z,0
2017-04-12T03:40:40.936Z,0
2017-04-12T03:41:21.593Z,0
2017-04-12T03:42:02.248Z,0
2017-04-12T03:42:42.917Z,0
2017-04-12T03:43:23.554Z,0
2017-04-12T03:44:04.207Z,0
2017-04-12T03:44:44.769Z,0
2017-04-12T03:45:25.382Z,0
2017-04-12T03:46:06.068Z,0
2017-04-12T03:46:46.718Z,0
2017-04-12T03:47:27.271Z,0
2017-04-12T03:48:07.892Z,0
2017-04-12T03:48:48.572Z,0
2017-04-12T03:49:29.224Z,0
2017-04-12T03:50:09.794Z,0
2017-04-12T03:50:50.393Z,0
2017-04-12T03:51:31.015Z,0
2017-04-12T03:52:11.631Z,0
2017-04-12T03:52:52.209Z,0
2017-04-12T03:53:32.910Z,0
2017-04-12T03:54:13.499Z,0
2017-04-12T03:54:55.176Z,0
2017-04-12T03:55:35.814Z,0
2017-04-12T03:56:16.473Z,0
2017-04-12T03:56:57.126Z,0
2017-04-12T03:57:37.788Z,0
2017-04-12T03:58:18.428Z,0
2017-04-12T03:58:59.097Z,0
2017-04-12T03:59:39.734Z,0
2017-04-12T04:00:20.390Z,0
2017-04-12T04:01:01.039Z,0
2017-04-12T04:01:41.721Z,0
2017-04-12T04:02:22.349Z,0
2017-04-12T04:03:03.002Z,0
2017-04-12T04:03:43.647Z,0
2017-04-12T04:04:24.228Z,0
2017-04-12T04:05:04.859Z,0
2017-04-12T04:05:45.505Z,0
2017-04-12T04:06:26.055Z,0
2017-04-12T04:07:06.707Z,0
2017-04-12T04:07:47.366Z,0
2017-04-12T04:08:27.955Z,0
2017-04-12T04:09:08.568Z,0
2017-04-12T04:09:49.223Z,0
2017-04-12T04:10:29.869Z,0
2017-04-12T04:11:10.520Z,0
2017-04-12T04:11:51.187Z,0
2017-04-12T04:12:31.827Z,0
2017-04-12T04:13:12.486Z,0
2017-04-12T04:13:53.151Z,0
2017-04-12T04:14:33.793Z,0
2017-04-12T04:15:14.442Z,0
2017-04-12T04:15:55.096Z,0
2017-04-12T04:16:35.753Z,0
2017-04-12T04:17:16.405Z,0
2017-04-12T04:17:57.056Z,0
2017-04-12T04:18:37.770Z,0
2017-04-12T04:19:18.404Z,0
2017-04-12T04:19:59.026Z,0
2017-04-12T04:20:39.667Z,0
2017-04-12T04:21:20.319Z,0
2017-04-12T04:22:00.981Z,0
2017-04-12T04:22:41.628Z,0
2017-04-12T04:23:22.287Z,0
2017-04-12T04:24:02.935Z,0
2017-04-12T04:24:43.587Z,0
2017-04-12T04:25:24.247Z,0
2017-04-12T04:26:04.921Z,0
2017-04-12T04:26:45.556Z,0
2017-04-12T04:27:26.202Z,0
2017-04-12T04:28:06.850Z,0
2017-04-12T04:28:47.508Z,0
2017-04-12T04:29:28.064Z,0
2017-04-12T04:30:08.678Z,0
2017-04-12T04:30:49.376Z,0
2017-04-12T04:31:30.022Z,0
2017-04-12T04:32:10.588Z,0
2017-04-12T04:32:51.206Z,0
2017-04-12T04:33:31.878Z,0
2017-04-12T04:34:12.528Z,0
2017-04-12T04:34:53.174Z,0
2017-04-12T04:35:33.832Z,0
2017-04-12T04:36:14.491Z,0
2017-04-12T04:36:55.141Z,0
2017-04-12T04:37:35.791Z,0
2017-04-12T04:38:17.476Z,0
2017-04-12T04:38:58.121Z,0
2017-04-12T04:39:38.777Z,0
2017-04-12T04:40:19.431Z,0
2017-04-12T04:41:00.079Z,0
2017-04-12T04:41:40.731Z,0
2017-04-12T04:42:22.412Z,0
2017-04-12T04:43:03.061Z,0
2017-04-12T04:43:43.719Z,0
2017-04-12T04:44:24.313Z,0
2017-04-12T04:45:04.994Z,0
2017-04-12T04:45:45.676Z,4
2017-04-12T04:46:26.326Z,4
2017-04-12T04:47:06.916Z,4
2017-04-12T04:47:47.609Z,4
2017-04-12T04:48:28.290Z,4
2017-04-12T04:49:08.941Z,0
2017-04-12T04:49:49.499Z,0
2017-04-12T04:50:30.114Z,0
2017-04-12T04:51:10.705Z,4
2017-04-12T04:51:52.368Z,4
2017-04-12T04:52:32.959Z,4
2017-04-12T04:53:13.743Z,4
2017-04-12T04:53:54.448Z,0
2017-04-12T04:54:35.080Z,4
2017-04-12T04:55:15.651Z,4
2017-04-12T04:55:56.300Z,4
2017-04-12T04:56:36.948Z,4
2017-04-12T04:57:17.534Z,4
2017-04-12T04:57:58.159Z,4
2017-04-12T04:58:38.798Z,4
2017-04-12T04:59:19.367Z,4
2017-04-12T05:00:00.012Z,4
2017-04-12T05:00:40.648Z,8
2017-04-12T05:01:21.259Z,8
2017-04-12T05:02:01.936Z,4
2017-04-12T05:02:42.538Z,4
2017-04-12T05:03:23.168Z,8
2017-04-12T05:04:03.757Z,8
2017-04-12T05:04:44.452Z,8
2017-04-12T05:05:25.015Z,8
2017-04-12T05:06:05.686Z,8
2017-04-12T05:06:46.362Z,8
2017-04-12T05:07:27.007Z,8
2017-04-12T05:08:07.643Z,12
2017-04-12T05:08:48.311Z,8
2017-04-12T05:09:28.937Z,8
2017-04-12T05:10:09.631Z,8
2017-04-12T05:10:50.204Z,12
2017-04-12T05:11:30.840Z,8
2017-04-12T05:12:11.447Z,12
2017-04-12T05:12:52.099Z,12
2017-04-12T05:13:32.668Z,12
2017-04-12T05:14:13.308Z,16
2017-04-12T05:14:53.959Z,12
2017-04-12T05:15:34.605Z,16
2017-04-12T05:16:15.266Z,12
2017-04-12T05:16:55.909Z,16
2017-04-12T05:17:36.581Z,12
2017-04-12T05:18:17.224Z,16
2017-04-12T05:18:57.876Z,20
2017-04-12T05:19:38.448Z,16
2017-04-12T05:20:19.081Z,20
2017-04-12T05:20:59.727Z,16
2017-04-12T05:21:40.319Z,20
2017-04-12T05:22:21.041Z,20
2017-04-12T05:23:01.801Z,20
2017-04-12T05:23:42.359Z,20
2017-04-12T05:24:23.096Z,20
2017-04-12T05:25:03.856Z,20
2017-04-12T05:25:44.421Z,20
2017-04-12T05:26:25.014Z,20
2017-04-12T05:27:05.708Z,20
2017-04-12T05:27:46.471Z,20
2017-04-12T05:28:27.026Z,20
2017-04-12T05:29:07.730Z,16
2017-04-12T05:29:48.426Z,20
2017-04-12T05:30:29.178Z,20
2017-04-12T05:31:09.930Z,20
2017-04-12T05:31:50.690Z,20
2017-04-12T05:32:31.443Z,20
2017-04-12T05:33:12.202Z,20
2017-04-12T05:33:52.948Z,20
2017-04-12T05:34:33.712Z,20
2017-04-12T05:35:14.467Z,24
2017-04-12T05:35:55.220Z,20
2017-04-12T05:36:35.981Z,20
2017-04-12T05:37:16.728Z,24
2017-04-12T05:37:57.400Z,24
2017-04-12T05:38:38.166Z,20
2017-04-12T05:39:18.897Z,24
2017-04-12T05:39:59.647Z,28
2017-04-12T05:40:40.419Z,24
2017-04-12T05:41:21.160Z,24
2017-04-12T05:42:01.923Z,28
2017-04-12T05:42:42.673Z,28
2017-04-12T05:43:36.243Z,28
2017-04-12T05:44:17.002Z,32
2017-04-12T05:44:57.652Z,28
2017-04-12T05:45:38.255Z,32
2017-04-12T05:46:23.771Z,32
2017-04-12T05:47:04.537Z,32
2017-04-12T05:47:45.109Z,32
2017-04-12T05:48:25.744Z,36
2017-04-12T05:49:06.391Z,36
2017-04-12T05:49:46.948Z,36
2017-04-12T05:50:27.720Z,40
2017-04-12T05:51:08.353Z,40
2017-04-12T05:51:48.940Z,44
2017-04-12T05:52:29.603Z,44
2017-04-12T05:53:10.249Z,44
2017-04-12T05:53:50.884Z,48
2017-04-12T05:54:31.452Z,48
2017-04-12T05:55:12.125Z,48
2017-04-12T05:55:52.720Z,48
2017-04-12T05:56:33.389Z,52
2017-04-12T05:57:13.955Z,48
2017-04-12T05:57:54.641Z,52
2017-04-12T05:58:35.344Z,52
2017-04-12T05:59:16.002Z,52
2017-04-12T05:59:56.537Z,52
2017-04-12T06:00:37.211Z,52
2017-04-12T06:01:17.960Z,52
2017-04-12T06:01:58.542Z,52
2017-04-12T06:02:39.150Z,56
2017-04-12T06:03:19.797Z,52
2017-04-12T06:04:00.366Z,52
2017-04-12T06:04:41.002Z,56
2017-04-12T06:05:21.655Z,52
2017-04-12T06:06:02.246Z,56
2017-04-12T06:06:42.961Z,56
2017-04-12T06:07:23.612Z,60
2017-04-12T06:08:04.367Z,60
2017-04-12T06:08:44.934Z,60
2017-04-12T06:09:25.554Z,60
2017-04-12T06:10:06.229Z,60
2017-04-12T06:10:46.904Z,64
2017-04-12T06:11:27.539Z,64
2017-04-12T06:12:08.197Z,64
2017-04-12T06:12:48.847Z,64
2017-04-12T06:13:29.462Z,68
2017-04-12T06:14:10.138Z,68
2017-04-12T06:14:50.801Z,68
2017-04-12T06:15:31.475Z,68
2017-04-12T06:16:12.224Z,68
2017-04-12T06:16:52.859Z,64
2017-04-12T06:17:33.507Z,60
2017-04-12T06:18:14.174Z,60
2017-04-12T06:18:54.831Z,60
2017-04-12T06:19:36.490Z,60
2017-04-12T06:20:17.141Z,56
2017-04-12T06:20:57.800Z,60
2017-04-12T06:21:38.558Z,60
2017-04-12T06:22:19.210Z,52
2017-04-12T06:22:59.874Z,52
2017-04-12T06:23:40.508Z,52
2017-04-12T06:24:21.167Z,52
2017-04-12T06:25:01.823Z,56
2017-04-12T06:25:42.488Z,56
2017-04-12T06:26:23.134Z,56
2017-04-12T06:27:03.791Z,56
2017-04-12T06:27:44.441Z,60
2017-04-12T06:28:25.087Z,64
2017-04-12T06:29:05.734Z,60
2017-04-12T06:29:46.398Z,64
2017-04-12T06:30:26.995Z,68
2017-04-12T06:31:07.656Z,68
2017-04-12T06:31:48.379Z,68
2017-04-12T06:32:29.022Z,68
2017-04-12T06:33:09.595Z,68
2017-04-12T06:33:50.269Z,68
2017-04-12T06:34:30.971Z,72
2017-04-12T06:35:11.615Z,68
2017-04-12T06:35:52.274Z,72
2017-04-12T06:36:32.922Z,76
2017-04-12T06:37:13.628Z,76
2017-04-12T06:37:54.232Z,80
2017-04-12T06:38:34.881Z,80
2017-04-12T06:39:15.528Z,80
2017-04-12T06:39:56.158Z,80
2017-04-12T06:40:37.158Z,80
2017-04-12T06:41:17.807Z,84
2017-04-12T06:41:58.469Z,84
2017-04-12T06:42:39.114Z,84
2017-04-12T06:43:19.751Z,84
2017-04-12T06:44:00.409Z,84
2017-04-12T06:44:41.061Z,84
2017-04-12T06:45:21.712Z,84
2017-04-12T06:46:02.358Z,88
2017-04-12T06:46:43.041Z,84
2017-04-12T06:47:23.696Z,88
2017-04-12T06:48:04.302Z,84
2017-04-12T06:48:44.958Z,88
2017-04-12T06:49:25.666Z,88
2017-04-12T06:50:06.405Z,88
2017-04-12T06:50:47.051Z,88
2017-04-12T06:51:27.706Z,88
2017-04-12T06:52:08.357Z,92
2017-04-12T06:52:49.009Z,96
2017-04-12T06:53:29.772Z,96
2017-04-12T06:54:10.435Z,96
2017-04-12T06:54:51.075Z,96
2017-04-12T06:55:31.767Z,96
2017-04-12T06:56:12.484Z,96
2017-04-12T06:56:53.127Z,96
2017-04-12T06:57:33.780Z,96
2017-04-12T06:58:14.539Z,96
2017-04-12T06:58:55.197Z,96
2017-04-12T06:59:35.843Z,92
2017-04-12T07:00:16.510Z,92
2017-04-12T07:00:57.142Z,92
2017-04-12T07:01:37.796Z,92
2017-04-12T07:02:18.454Z,88
2017-04-12T07:03:00.128Z,92
2017-04-12T07:03:40.781Z,92
2017-04-12T07:04:21.433Z,92
2017-04-12T07:05:01.993Z,92
2017-04-12T07:05:42.688Z,92
2017-04-12T07:06:23.411Z,92
2017-04-12T07:07:04.153Z,92
2017-04-12T07:07:44.828Z,96
2017-04-12T07:08:25.671Z,92
2017-04-12T07:09:06.369Z,96
2017-04-12T07:09:47.076Z,92
2017-04-12T07:10:27.652Z,96
2017-04-12T07:11:08.293Z,96
2017-04-12T07:11:49.030Z,100
2017-04-12T07:12:29.604Z,100
2017-04-12T07:13:10.248Z,100
2017-04-12T07:13:50.893Z,100
2017-04-12T07:14:31.538Z,104
2017-04-12T07:15:12.189Z,104
2017-04-12T07:15:52.842Z,108
2017-04-12T07:16:33.442Z,112
2017-04-12T07:17:15.281Z,108
2017-04-12T07:17:55.938Z,112
2017-04-12T07:18:36.591Z,112
2017-04-12T07:19:17.149Z,112
2017-04-12T07:19:57.922Z,116
2017-04-12T07:20:39.599Z,116
2017-04-12T07:21:20.215Z,116
2017-04-12T07:22:00.816Z,116
2017-04-12T07:22:42.533Z,116
2017-04-12T07:23:23.220Z,116
2017-04-12T07:24:03.850Z,116
2017-04-12T07:24:44.418Z,116
2017-04-12T07:25:25.130Z,116
2017-04-12T07:26:05.840Z,116
2017-04-12T07:26:46.576Z,120
2017-04-12T07:27:27.145Z,120
2017-04-12T07:28:07.843Z,124
2017-04-12T07:28:48.540Z,128
2017-04-12T07:29:29.177Z,128
2017-04-12T07:30:09.758Z,132
2017-04-12T07:30:50.475Z,140
2017-04-12T07:31:31.153Z,144
2017-04-12T07:32:11.795Z,152
2017-04-12T07:32:52.355Z,160
2017-04-12T07:33:33.058Z,164
2017-04-12T07:34:13.764Z,168
2017-04-12T07:34:54.410Z,176
2017-04-12T07:35:35.072Z,180
2017-04-12T07:36:15.718Z,176
2017-04-12T07:36:56.360Z,180
2017-04-12T07:37:37.113Z,176
2017-04-12T07:38:17.808Z,172
2017-04-12T07:38:58.422Z,172
2017-04-12T07:39:39.082Z,168
2017-04-12T07:40:19.829Z,168
2017-04-12T07:41:01.509Z,176
2017-04-12T07:41:42.235Z,176
2017-04-12T07:42:22.930Z,172
2017-04-12T07:43:03.573Z,168
2017-04-12T07:43:44.223Z,164
2017-04-12T07:44:24.878Z,160
2017-04-12T07:45:05.531Z,156
2017-04-12T07:45:46.177Z,156
2017-04-12T07:46:26.827Z,156
2017-04-12T07:47:07.481Z,152
2017-04-12T07:47:48.140Z,152
2017-04-12T07:48:28.793Z,152
2017-04-12T07:49:09.442Z,156
2017-04-12T07:49:50.099Z,160
2017-04-12T07:50:30.751Z,164
2017-04-12T07:51:11.406Z,160
2017-04-12T07:51:52.078Z,168
2017-04-12T07:52:32.809Z,172
2017-04-12T07:53:13.480Z,176
2017-04-12T07:53:54.154Z,188
2017-04-12T07:54:34.782Z,200
2017-04-12T07:55:15.375Z,212
2017-04-12T07:55:56.045Z,220
2017-04-12T07:56:36.752Z,220
2017-04-12T07:57:17.386Z,220
2017-04-12T07:57:57.971Z,212
2017-04-12T07:58:38.645Z,204
2017-04-12T07:59:19.348Z,196
2017-04-12T08:00:00.034Z,188
2017-04-12T08:00:40.616Z,184
2017-04-12T08:01:21.319Z,180
2017-04-12T08:02:01.951Z,180
2017-04-12T08:02:42.525Z,184
2017-04-12T08:03:23.150Z,188
2017-04-12T08:04:03.820Z,196
2017-04-12T08:04:44.387Z,200
2017-04-12T08:05:25.011Z,220
2017-04-12T08:06:05.681Z,240
2017-04-12T08:06:46.281Z,252
2017-04-12T08:07:26.967Z,296
2017-04-12T08:08:07.627Z,360
2017-04-12T08:08:48.191Z,408
2017-04-12T08:09:28.847Z,424
2017-04-12T08:10:09.585Z,428
2017-04-12T08:10:50.238Z,428
2017-04-12T08:11:30.908Z,428
2017-04-12T08:12:11.539Z,436
2017-04-12T08:12:52.209Z,460
2017-04-12T08:13:32.852Z,484
2017-04-12T08:14:13.506Z,516
2017-04-12T08:14:54.162Z,516
2017-04-12T08:15:34.813Z,516
2017-04-12T08:16:15.473Z,516
2017-04-12T08:16:56.119Z,544
2017-04-12T08:17:36.770Z,564
2017-04-12T08:18:17.419Z,520
2017-04-12T08:18:58.085Z,472
2017-04-12T08:19:38.750Z,440
2017-04-12T08:20:19.327Z,372
2017-04-12T08:20:59.995Z,308
2017-04-12T08:21:40.705Z,276
2017-04-12T08:22:21.469Z,256
2017-04-12T08:23:02.045Z,240
2017-04-12T08:23:42.716Z,232
2017-04-12T08:24:23.418Z,228
2017-04-12T08:25:04.045Z,236
2017-04-12T08:25:44.721Z,236
2017-04-12T08:26:25.461Z,224
2017-04-12T08:27:06.122Z,228
2017-04-12T08:27:46.896Z,224
2017-04-12T08:28:28.557Z,232
2017-04-12T08:29:10.236Z,232
2017-04-12T08:29:51.008Z,240
2017-04-12T08:30:31.620Z,224
2017-04-12T08:31:12.284Z,216
2017-04-12T08:31:52.951Z,216
2017-04-12T08:32:33.697Z,216
2017-04-12T08:33:14.269Z,216
2017-04-12T08:33:54.945Z,220
2017-04-12T08:34:35.649Z,224
2017-04-12T08:35:16.303Z,220
2017-04-12T08:35:56.890Z,224
2017-04-12T08:36:37.596Z,224
2017-04-12T08:37:19.334Z,216
2017-04-12T08:38:02.038Z,204
2017-04-12T08:38:42.647Z,196
2017-04-12T08:39:25.381Z,192
2017-04-12T08:40:06.190Z,192
2017-04-12T08:40:47.220Z,192
2017-04-12T08:41:27.867Z,188
2017-04-12T08:42:09.652Z,184
2017-04-12T08:42:51.445Z,180
2017-04-12T08:43:32.113Z,180
2017-04-12T08:44:24.831Z,176
2017-04-12T08:45:17.554Z,172
2017-04-12T08:45:58.305Z,168
2017-04-12T08:46:41.024Z,168
2017-04-12T08:47:22.802Z,168
2017-04-12T08:48:03.540Z,172
2017-04-12T08:48:44.201Z,172
2017-04-12T08:49:29.552Z,172
2017-04-12T08:50:16.043Z,176
2017-04-12T08:51:07.556Z,176
2017-04-12T08:51:50.361Z,180
2017-04-12T08:52:32.133Z,176
2017-04-12T08:53:14.937Z,172
2017-04-12T08:53:55.687Z,172
2017-04-12T08:54:36.446Z,172
2017-04-12T08:55:17.024Z,168
2017-04-12T08:55:57.759Z,168
2017-04-12T08:56:38.509Z,168
2017-04-12T08:57:19.071Z,168
2017-04-12T08:58:01.793Z,168
2017-04-12T08:58:42.452Z,168
2017-04-12T08:59:23.071Z,172
2017-04-12T09:00:05.798Z,176
2017-04-12T09:00:47.480Z,184
2017-04-12T09:01:28.135Z,188
2017-04-12T09:02:09.806Z,204
2017-04-12T09:02:50.464Z,216
2017-04-12T09:03:36.958Z,236
2017-04-12T09:04:17.606Z,264
2017-04-12T09:04:58.356Z,312
2017-04-12T09:05:44.953Z,340
2017-04-12T09:06:26.741Z,344
2017-04-12T09:07:08.411Z,328
2017-04-12T09:07:51.108Z,304
2017-04-12T09:08:32.887Z,260
2017-04-12T09:09:14.566Z,232
2017-04-12T09:09:55.212Z,220
2017-04-12T09:10:35.789Z,212
2017-04-12T09:11:18.492Z,212
2017-04-12T09:11:59.227Z,216
2017-04-12T09:12:39.877Z,220
2017-04-12T09:13:20.473Z,228
2017-04-12T09:14:02.192Z,232
2017-04-12T09:14:42.902Z,232
2017-04-12T09:15:25.562Z,240
2017-04-12T09:16:06.213Z,244
2017-04-12T09:16:46.869Z,240
2017-04-12T09:17:27.534Z,260
2017-04-12T09:18:10.242Z,316
2017-04-12T09:18:51.901Z,388
2017-04-12T09:19:32.549Z,532
2017-04-12T09:20:13.166Z,564
2017-04-12T09:20:59.365Z,572
2017-04-12T09:21:41.072Z,596
2017-04-12T09:22:21.830Z,588
2017-04-12T09:23:03.186Z,604
2017-04-12T09:23:44.842Z,620
2017-04-12T09:24:27.586Z,584
2017-04-12T09:25:08.317Z,624
2017-04-12T09:25:53.993Z,652
2017-04-12T09:26:34.738Z,668
2017-04-12T09:27:16.419Z,608
2017-04-12T09:28:02.000Z,524
2017-04-12T09:28:42.646Z,496
2017-04-12T09:29:29.043Z,420
2017-04-12T09:30:09.691Z,380
2017-04-12T09:30:50.345Z,344
2017-04-12T09:31:31.035Z,300
2017-04-12T09:32:11.855Z,272
2017-04-12T09:32:54.560Z,256
2017-04-12T09:33:35.205Z,236
2017-04-12T09:34:15.858Z,228
2017-04-12T09:34:56.712Z,220
2017-04-12T09:35:37.366Z,212
2017-04-12T09:36:20.065Z,224
2017-04-12T09:37:00.730Z,240
2017-04-12T09:37:41.375Z,292
2017-04-12T09:38:22.136Z,560
2017-04-12T09:39:02.783Z,612
2017-04-12T09:39:43.443Z,508
2017-04-12T09:40:25.139Z,616
2017-04-12T09:41:05.906Z,672
2017-04-12T09:41:46.523Z,612
2017-04-12T09:42:27.179Z,608
2017-04-12T09:43:07.827Z,680
2017-04-12T09:43:48.489Z,792
2017-04-12T09:44:33.949Z,796
2017-04-12T09:45:14.708Z,808
2017-04-12T09:45:55.365Z,836
2017-04-12T09:46:36.111Z,792
2017-04-12T09:47:16.783Z,772
2017-04-12T09:47:57.619Z,708
2017-04-12T09:48:38.289Z,680
2017-04-12T09:49:19.027Z,640
2017-04-12T09:49:59.712Z,620
2017-04-12T09:50:40.432Z,580
2017-04-12T09:51:21.126Z,592
2017-04-12T09:52:01.755Z,544
2017-04-12T09:52:43.534Z,532
2017-04-12T09:53:25.211Z,544
2017-04-12T09:54:06.960Z,552
2017-04-12T09:54:47.618Z,564
2017-04-12T09:55:28.313Z,484
2017-04-12T09:56:09.023Z,448
2017-04-12T09:56:49.689Z,408
2017-04-12T09:57:30.334Z,456
2017-04-12T09:58:11.100Z,476
2017-04-12T09:58:51.750Z,496
2017-04-12T09:59:32.395Z,440
2017-04-12T10:00:14.075Z,424
2017-04-12T10:00:54.724Z,352
2017-04-12T10:01:35.381Z,328
2017-04-12T10:02:16.026Z,624
2017-04-12T10:02:56.682Z,664
2017-04-12T10:03:37.332Z,480
2017-04-12T10:04:17.998Z,652
2017-04-12T10:04:58.638Z,464
2017-04-12T10:05:39.208Z,412
2017-04-12T10:06:19.935Z,340
2017-04-12T10:07:00.599Z,300
2017-04-12T10:07:41.255Z,320
2017-04-12T10:08:21.845Z,340
2017-04-12T10:09:02.561Z,336
2017-04-12T10:09:43.206Z,316
2017-04-12T10:10:23.878Z,352
2017-04-12T10:11:04.441Z,356
2017-04-12T10:11:45.068Z,464
2017-04-12T10:12:25.724Z,344
2017-04-12T10:13:06.297Z,388
2017-04-12T10:13:46.994Z,376
2017-04-12T10:14:27.681Z,352
2017-04-12T10:15:08.253Z,332
2017-04-12T10:15:48.896Z,348
2017-04-12T10:16:30.571Z,364
2017-04-12T10:17:11.208Z,360
2017-04-12T10:17:51.867Z,308
2017-04-12T10:18:32.534Z,304
2017-04-12T10:19:13.253Z,312
2017-04-12T10:19:53.925Z,344
2017-04-12T10:20:34.582Z,352
2017-04-12T10:21:15.243Z,348
2017-04-12T10:21:55.911Z,340
2017-04-12T10:22:37.575Z,336
2017-04-12T10:23:18.228Z,364
2017-04-12T10:23:58.877Z,336
2017-04-12T10:24:39.544Z,300
2017-04-12T10:25:20.116Z,268
2017-04-12T10:26:00.800Z,268
2017-04-12T10:26:41.492Z,276
2017-04-12T10:27:22.157Z,280
2017-04-12T10:28:02.770Z,284
2017-04-12T10:28:43.427Z,300
2017-04-12T10:29:24.089Z,280
2017-04-12T10:30:04.743Z,240
2017-04-12T10:30:45.414Z,232
2017-04-12T10:31:26.070Z,224
2017-04-12T10:32:06.706Z,212
2017-04-12T10:32:47.465Z,228
2017-04-12T10:33:28.121Z,252
2017-04-12T10:34:08.812Z,256
2017-04-12T10:34:49.543Z,248
2017-04-12T10:35:30.113Z,228
2017-04-12T10:36:10.802Z,224
2017-04-12T10:36:51.481Z,240
2017-04-12T10:37:32.148Z,244
2017-04-12T10:38:12.745Z,236
2017-04-12T10:38:53.413Z,240
2017-04-12T10:39:34.097Z,236
2017-04-12T10:40:14.749Z,232
2017-04-12T10:40:55.360Z,228
2017-04-12T10:41:36.010Z,236
2017-04-12T10:42:16.714Z,232
2017-04-12T10:42:57.371Z,240
2017-04-12T10:43:37.946Z,248
2017-04-12T10:44:18.641Z,256
2017-04-12T10:44:59.329Z,252
2017-04-12T10:45:40.086Z,240
2017-04-12T10:46:20.839Z,228
2017-04-12T10:47:01.490Z,224
2017-04-12T10:47:42.142Z,220
2017-04-12T10:48:22.784Z,212
2017-04-12T10:49:03.455Z,216
2017-04-12T10:49:44.112Z,224
2017-04-12T10:50:24.848Z,228
2017-04-12T10:51:05.511Z,236
2017-04-12T10:51:46.155Z,224
2017-04-12T10:52:26.944Z,216
2017-04-12T10:53:07.684Z,224
2017-04-12T10:53:48.329Z,228
2017-04-12T10:54:28.964Z,228
2017-04-12T10:55:09.758Z,212
2017-04-12T10:55:50.398Z,196
2017-04-12T10:56:31.123Z,200
2017-04-12T10:57:11.915Z,204
2017-04-12T10:57:52.551Z,188
2017-04-12T10:58:33.102Z,184
2017-04-12T10:59:13.718Z,172